sensor_id;sensor_type;location;lat;lon;timestamp;P1;durP1;ratioP1;P2;durP2;ratioP2
47329;SDS011;33060;50.178;7.570;2024-02-15T00:02:23;5.93;;;2.97;;
47329;SDS011;33060;50.178;7.570;2024-02-15T00:04:49;7.00;;;3.33;;
47329;SDS011;33060;50.178;7.570;2024-02-15T00:09:43;7.75;;;3.08;;
47329;SDS011;33060;50.178;7.570;2024-02-15T00:14:36;6.72;;;3.30;;
47329;SDS011;33060;50.178;7.570;2024-02-15T00:17:05;5.00;;;2.80;;
47329;SDS011;33060;50.178;7.570;2024-02-15T00:19:31;7.00;;;3.08;;
47329;SDS011;33060;50.178;7.570;2024-02-15T00:21:58;4.95;;;2.83;;
47329;SDS011;33060;50.178;7.570;2024-02-15T00:24:26;8.27;;;2.92;;
47329;SDS011;33060;50.178;7.570;2024-02-15T00:26:53;6.35;;;3.08;;
47329;SDS011;33060;50.178;7.570;2024-02-15T00:29:20;4.38;;;2.40;;
47329;SDS011;33060;50.178;7.570;2024-02-15T00:31:47;6.60;;;3.83;;
47329;SDS011;33060;50.178;7.570;2024-02-15T00:34:16;7.50;;;2.97;;
47329;SDS011;33060;50.178;7.570;2024-02-15T00:36:44;7.25;;;3.13;;
47329;SDS011;33060;50.178;7.570;2024-02-15T00:39:11;5.80;;;3.25;;
47329;SDS011;33060;50.178;7.570;2024-02-15T00:41:40;6.47;;;2.95;;
47329;SDS011;33060;50.178;7.570;2024-02-15T00:44:09;6.22;;;3.13;;
47329;SDS011;33060;50.178;7.570;2024-02-15T00:46:38;5.82;;;2.60;;
47329;SDS011;33060;50.178;7.570;2024-02-15T00:51:33;10.35;;;2.60;;
47329;SDS011;33060;50.178;7.570;2024-02-15T00:54:02;6.18;;;2.80;;
47329;SDS011;33060;50.178;7.570;2024-02-15T00:56:29;5.25;;;2.90;;
47329;SDS011;33060;50.178;7.570;2024-02-15T00:58:58;6.38;;;2.50;;
47329;SDS011;33060;50.178;7.570;2024-02-15T01:01:27;7.35;;;2.83;;
47329;SDS011;33060;50.178;7.570;2024-02-15T01:03:54;5.38;;;2.70;;
47329;SDS011;33060;50.178;7.570;2024-02-15T01:06:21;6.63;;;3.30;;
47329;SDS011;33060;50.178;7.570;2024-02-15T01:08:49;4.78;;;2.60;;
47329;SDS011;33060;50.178;7.570;2024-02-15T01:11:16;5.65;;;2.58;;
47329;SDS011;33060;50.178;7.570;2024-02-15T01:16:11;3.42;;;1.98;;
47329;SDS011;33060;50.178;7.570;2024-02-15T01:18:38;5.00;;;2.20;;
47329;SDS011;33060;50.178;7.570;2024-02-15T01:21:05;3.60;;;2.00;;
47329;SDS011;33060;50.178;7.570;2024-02-15T01:23:33;6.13;;;2.60;;
47329;SDS011;33060;50.178;7.570;2024-02-15T01:26:03;4.97;;;2.35;;
47329;SDS011;33060;50.178;7.570;2024-02-15T01:28:31;5.25;;;2.20;;
47329;SDS011;33060;50.178;7.570;2024-02-15T01:30:59;6.22;;;2.05;;
47329;SDS011;33060;50.178;7.570;2024-02-15T01:33:26;7.38;;;2.10;;
47329;SDS011;33060;50.178;7.570;2024-02-15T01:35:53;4.60;;;2.05;;
47329;SDS011;33060;50.178;7.570;2024-02-15T01:38:21;4.95;;;2.33;;
47329;SDS011;33060;50.178;7.570;2024-02-15T01:43:14;5.68;;;2.00;;
47329;SDS011;33060;50.178;7.570;2024-02-15T01:45:42;5.40;;;2.67;;
47329;SDS011;33060;50.178;7.570;2024-02-15T01:48:09;5.15;;;2.33;;
47329;SDS011;33060;50.178;7.570;2024-02-15T01:50:37;6.70;;;2.67;;
47329;SDS011;33060;50.178;7.570;2024-02-15T01:53:05;6.07;;;2.65;;
47329;SDS011;33060;50.178;7.570;2024-02-15T01:55:34;4.40;;;2.42;;
47329;SDS011;33060;50.178;7.570;2024-02-15T01:58:01;6.70;;;3.22;;
47329;SDS011;33060;50.178;7.570;2024-02-15T02:00:29;5.05;;;2.53;;
47329;SDS011;33060;50.178;7.570;2024-02-15T02:02:57;8.93;;;2.92;;
47329;SDS011;33060;50.178;7.570;2024-02-15T02:05:29;6.97;;;2.75;;
47329;SDS011;33060;50.178;7.570;2024-02-15T02:07:58;6.20;;;2.38;;
47329;SDS011;33060;50.178;7.570;2024-02-15T02:10:28;5.10;;;2.35;;
47329;SDS011;33060;50.178;7.570;2024-02-15T02:13:00;5.55;;;2.70;;
47329;SDS011;33060;50.178;7.570;2024-02-15T02:15:33;4.70;;;2.25;;
47329;SDS011;33060;50.178;7.570;2024-02-15T02:18:00;6.13;;;3.15;;
47329;SDS011;33060;50.178;7.570;2024-02-15T02:20:27;5.40;;;2.80;;
47329;SDS011;33060;50.178;7.570;2024-02-15T02:22:57;7.53;;;2.95;;
47329;SDS011;33060;50.178;7.570;2024-02-15T02:25:34;6.38;;;2.42;;
47329;SDS011;33060;50.178;7.570;2024-02-15T02:28:01;6.18;;;2.85;;
47329;SDS011;33060;50.178;7.570;2024-02-15T02:30:28;5.85;;;2.80;;
47329;SDS011;33060;50.178;7.570;2024-02-15T02:32:57;5.47;;;3.08;;
47329;SDS011;33060;50.178;7.570;2024-02-15T02:35:25;6.28;;;2.50;;
47329;SDS011;33060;50.178;7.570;2024-02-15T02:37:53;8.60;;;2.92;;
47329;SDS011;33060;50.178;7.570;2024-02-15T02:42:53;5.05;;;2.53;;
47329;SDS011;33060;50.178;7.570;2024-02-15T02:45:27;6.57;;;2.75;;
47329;SDS011;33060;50.178;7.570;2024-02-15T02:47:54;6.97;;;2.50;;
47329;SDS011;33060;50.178;7.570;2024-02-15T02:50:21;7.82;;;3.15;;
47329;SDS011;33060;50.178;7.570;2024-02-15T02:52:49;5.85;;;2.95;;
47329;SDS011;33060;50.178;7.570;2024-02-15T02:55:16;4.50;;;2.45;;
47329;SDS011;33060;50.178;7.570;2024-02-15T02:57:44;7.13;;;2.75;;
47329;SDS011;33060;50.178;7.570;2024-02-15T03:00:12;6.00;;;2.67;;
47329;SDS011;33060;50.178;7.570;2024-02-15T03:02:42;4.25;;;2.10;;
47329;SDS011;33060;50.178;7.570;2024-02-15T03:05:10;5.55;;;2.67;;
47329;SDS011;33060;50.178;7.570;2024-02-15T03:07:41;4.47;;;2.60;;
47329;SDS011;33060;50.178;7.570;2024-02-15T03:10:08;6.18;;;2.45;;
47329;SDS011;33060;50.178;7.570;2024-02-15T03:12:41;6.75;;;2.40;;
47329;SDS011;33060;50.178;7.570;2024-02-15T03:15:14;8.70;;;2.50;;
47329;SDS011;33060;50.178;7.570;2024-02-15T03:17:43;5.18;;;2.35;;
47329;SDS011;33060;50.178;7.570;2024-02-15T03:20:12;6.03;;;2.15;;
47329;SDS011;33060;50.178;7.570;2024-02-15T03:22:53;8.13;;;2.30;;
47329;SDS011;33060;50.178;7.570;2024-02-15T03:25:22;5.82;;;2.15;;
47329;SDS011;33060;50.178;7.570;2024-02-15T03:27:53;6.78;;;2.05;;
47329;SDS011;33060;50.178;7.570;2024-02-15T03:30:21;7.13;;;2.45;;
47329;SDS011;33060;50.178;7.570;2024-02-15T03:32:50;7.32;;;2.55;;
47329;SDS011;33060;50.178;7.570;2024-02-15T03:35:18;6.22;;;2.45;;
47329;SDS011;33060;50.178;7.570;2024-02-15T03:37:46;4.93;;;2.33;;
47329;SDS011;33060;50.178;7.570;2024-02-15T03:40:13;5.05;;;2.85;;
47329;SDS011;33060;50.178;7.570;2024-02-15T03:42:40;5.80;;;2.90;;
47329;SDS011;33060;50.178;7.570;2024-02-15T03:45:08;6.15;;;1.83;;
47329;SDS011;33060;50.178;7.570;2024-02-15T03:47:35;8.57;;;2.83;;
47329;SDS011;33060;50.178;7.570;2024-02-15T03:50:03;6.28;;;2.28;;
47329;SDS011;33060;50.178;7.570;2024-02-15T03:52:31;9.40;;;2.53;;
47329;SDS011;33060;50.178;7.570;2024-02-15T03:54:58;5.97;;;1.73;;
47329;SDS011;33060;50.178;7.570;2024-02-15T03:57:26;8.15;;;2.50;;
47329;SDS011;33060;50.178;7.570;2024-02-15T03:59:52;5.72;;;2.40;;
47329;SDS011;33060;50.178;7.570;2024-02-15T04:02:21;5.50;;;1.80;;
47329;SDS011;33060;50.178;7.570;2024-02-15T04:04:49;4.72;;;1.80;;
47329;SDS011;33060;50.178;7.570;2024-02-15T04:07:19;6.25;;;2.25;;
47329;SDS011;33060;50.178;7.570;2024-02-15T04:12:12;6.70;;;2.65;;
47329;SDS011;33060;50.178;7.570;2024-02-15T04:14:40;5.03;;;2.45;;
47329;SDS011;33060;50.178;7.570;2024-02-15T04:17:07;10.60;;;4.88;;
47329;SDS011;33060;50.178;7.570;2024-02-15T04:19:34;9.80;;;6.80;;
47329;SDS011;33060;50.178;7.570;2024-02-15T04:22:01;11.50;;;8.52;;
47329;SDS011;33060;50.178;7.570;2024-02-15T04:24:30;5.95;;;3.20;;
47329;SDS011;33060;50.178;7.570;2024-02-15T04:26:58;3.70;;;1.77;;
47329;SDS011;33060;50.178;7.570;2024-02-15T04:29:25;5.30;;;1.63;;
47329;SDS011;33060;50.178;7.570;2024-02-15T04:31:52;6.13;;;1.80;;
47329;SDS011;33060;50.178;7.570;2024-02-15T04:34:21;5.18;;;1.20;;
47329;SDS011;33060;50.178;7.570;2024-02-15T04:36:48;4.07;;;1.30;;
47329;SDS011;33060;50.178;7.570;2024-02-15T04:39:17;4.10;;;1.65;;
47329;SDS011;33060;50.178;7.570;2024-02-15T04:41:56;3.35;;;1.20;;
47329;SDS011;33060;50.178;7.570;2024-02-15T04:46:54;9.90;;;5.00;;
47329;SDS011;33060;50.178;7.570;2024-02-15T04:49:21;9.15;;;4.35;;
47329;SDS011;33060;50.178;7.570;2024-02-15T04:51:49;13.02;;;6.78;;
47329;SDS011;33060;50.178;7.570;2024-02-15T04:56:44;6.57;;;1.85;;
47329;SDS011;33060;50.178;7.570;2024-02-15T04:59:12;5.40;;;1.40;;
47329;SDS011;33060;50.178;7.570;2024-02-15T05:01:42;7.57;;;2.35;;
47329;SDS011;33060;50.178;7.570;2024-02-15T05:04:12;8.48;;;2.58;;
47329;SDS011;33060;50.178;7.570;2024-02-15T05:06:40;6.85;;;3.55;;
47329;SDS011;33060;50.178;7.570;2024-02-15T05:09:07;5.97;;;3.22;;
47329;SDS011;33060;50.178;7.570;2024-02-15T05:11:36;7.88;;;4.30;;
47329;SDS011;33060;50.178;7.570;2024-02-15T05:14:08;10.82;;;3.35;;
47329;SDS011;33060;50.178;7.570;2024-02-15T05:16:37;8.57;;;3.67;;
47329;SDS011;33060;50.178;7.570;2024-02-15T05:19:09;7.25;;;2.85;;
47329;SDS011;33060;50.178;7.570;2024-02-15T05:21:39;5.13;;;1.73;;
47329;SDS011;33060;50.178;7.570;2024-02-15T05:24:07;4.93;;;1.50;;
47329;SDS011;33060;50.178;7.570;2024-02-15T05:29:00;4.80;;;0.98;;
47329;SDS011;33060;50.178;7.570;2024-02-15T05:31:27;4.20;;;0.95;;
47329;SDS011;33060;50.178;7.570;2024-02-15T05:33:54;5.22;;;1.30;;
47329;SDS011;33060;50.178;7.570;2024-02-15T05:36:21;4.97;;;1.65;;
47329;SDS011;33060;50.178;7.570;2024-02-15T05:38:50;4.28;;;1.70;;
47329;SDS011;33060;50.178;7.570;2024-02-15T05:41:18;4.45;;;1.63;;
47329;SDS011;33060;50.178;7.570;2024-02-15T05:43:47;2.70;;;1.13;;
47329;SDS011;33060;50.178;7.570;2024-02-15T05:46:20;4.38;;;1.67;;
47329;SDS011;33060;50.178;7.570;2024-02-15T05:48:50;4.13;;;1.65;;
47329;SDS011;33060;50.178;7.570;2024-02-15T05:51:21;4.07;;;1.17;;
47329;SDS011;33060;50.178;7.570;2024-02-15T05:53:49;6.28;;;2.17;;
47329;SDS011;33060;50.178;7.570;2024-02-15T05:56:16;4.43;;;1.40;;
47329;SDS011;33060;50.178;7.570;2024-02-15T05:58:43;4.78;;;2.05;;
47329;SDS011;33060;50.178;7.570;2024-02-15T06:01:10;6.75;;;1.77;;
47329;SDS011;33060;50.178;7.570;2024-02-15T06:03:39;4.57;;;1.65;;
47329;SDS011;33060;50.178;7.570;2024-02-15T06:06:07;4.65;;;1.75;;
47329;SDS011;33060;50.178;7.570;2024-02-15T06:08:35;4.22;;;2.03;;
47329;SDS011;33060;50.178;7.570;2024-02-15T06:11:03;5.45;;;2.05;;
47329;SDS011;33060;50.178;7.570;2024-02-15T06:13:31;4.35;;;1.92;;
47329;SDS011;33060;50.178;7.570;2024-02-15T06:18:25;10.13;;;5.28;;
47329;SDS011;33060;50.178;7.570;2024-02-15T06:20:55;8.27;;;4.00;;
47329;SDS011;33060;50.178;7.570;2024-02-15T06:23:29;3.75;;;1.48;;
47329;SDS011;33060;50.178;7.570;2024-02-15T06:25:56;5.55;;;1.30;;
47329;SDS011;33060;50.178;7.570;2024-02-15T06:28:28;4.85;;;1.73;;
47329;SDS011;33060;50.178;7.570;2024-02-15T06:33:59;5.25;;;2.17;;
47329;SDS011;33060;50.178;7.570;2024-02-15T06:36:52;6.43;;;2.08;;
47329;SDS011;33060;50.178;7.570;2024-02-15T06:39:38;4.07;;;1.95;;
47329;SDS011;33060;50.178;7.570;2024-02-15T06:42:13;4.60;;;1.73;;
47329;SDS011;33060;50.178;7.570;2024-02-15T06:44:47;4.90;;;2.03;;
47329;SDS011;33060;50.178;7.570;2024-02-15T06:47:15;4.45;;;1.60;;
47329;SDS011;33060;50.178;7.570;2024-02-15T06:49:45;5.20;;;1.80;;
47329;SDS011;33060;50.178;7.570;2024-02-15T06:52:13;6.43;;;2.05;;
47329;SDS011;33060;50.178;7.570;2024-02-15T06:54:40;4.35;;;2.08;;
47329;SDS011;33060;50.178;7.570;2024-02-15T06:57:08;5.15;;;2.15;;
47329;SDS011;33060;50.178;7.570;2024-02-15T06:59:36;3.10;;;1.63;;
47329;SDS011;33060;50.178;7.570;2024-02-15T07:02:04;5.50;;;2.00;;
47329;SDS011;33060;50.178;7.570;2024-02-15T07:04:35;4.57;;;2.13;;
47329;SDS011;33060;50.178;7.570;2024-02-15T07:07:03;5.07;;;1.75;;
47329;SDS011;33060;50.178;7.570;2024-02-15T07:09:30;5.25;;;1.92;;
47329;SDS011;33060;50.178;7.570;2024-02-15T07:14:25;4.20;;;2.00;;
47329;SDS011;33060;50.178;7.570;2024-02-15T07:16:54;5.43;;;1.75;;
47329;SDS011;33060;50.178;7.570;2024-02-15T07:19:25;4.03;;;2.03;;
47329;SDS011;33060;50.178;7.570;2024-02-15T07:21:54;4.47;;;1.98;;
47329;SDS011;33060;50.178;7.570;2024-02-15T07:24:22;5.90;;;2.25;;
47329;SDS011;33060;50.178;7.570;2024-02-15T07:26:54;4.50;;;2.35;;
47329;SDS011;33060;50.178;7.570;2024-02-15T07:29:23;4.95;;;2.17;;
47329;SDS011;33060;50.178;7.570;2024-02-15T07:31:50;5.50;;;2.42;;
47329;SDS011;33060;50.178;7.570;2024-02-15T07:34:17;8.27;;;2.90;;
47329;SDS011;33060;50.178;7.570;2024-02-15T07:36:44;4.47;;;2.53;;
47329;SDS011;33060;50.178;7.570;2024-02-15T07:39:11;5.32;;;3.00;;
47329;SDS011;33060;50.178;7.570;2024-02-15T07:41:45;6.05;;;2.92;;
47329;SDS011;33060;50.178;7.570;2024-02-15T07:46:38;6.82;;;2.55;;
47329;SDS011;33060;50.178;7.570;2024-02-15T07:51:33;5.32;;;2.22;;
47329;SDS011;33060;50.178;7.570;2024-02-15T07:53:59;9.65;;;3.72;;
47329;SDS011;33060;50.178;7.570;2024-02-15T07:56:27;23.48;;;4.60;;
47329;SDS011;33060;50.178;7.570;2024-02-15T07:58:54;8.52;;;3.40;;
47329;SDS011;33060;50.178;7.570;2024-02-15T08:01:21;55.13;;;9.60;;
47329;SDS011;33060;50.178;7.570;2024-02-15T08:03:48;5.65;;;2.20;;
47329;SDS011;33060;50.178;7.570;2024-02-15T08:06:16;50.35;;;7.20;;
47329;SDS011;33060;50.178;7.570;2024-02-15T08:08:44;9.95;;;3.08;;
47329;SDS011;33060;50.178;7.570;2024-02-15T08:11:12;6.55;;;2.80;;
47329;SDS011;33060;50.178;7.570;2024-02-15T08:16:12;5.07;;;2.15;;
47329;SDS011;33060;50.178;7.570;2024-02-15T08:18:42;4.28;;;2.13;;
47329;SDS011;33060;50.178;7.570;2024-02-15T08:21:13;9.05;;;3.00;;
47329;SDS011;33060;50.178;7.570;2024-02-15T08:23:41;5.00;;;1.92;;
47329;SDS011;33060;50.178;7.570;2024-02-15T08:26:08;5.20;;;2.50;;
47329;SDS011;33060;50.178;7.570;2024-02-15T08:28:39;5.28;;;2.58;;
47329;SDS011;33060;50.178;7.570;2024-02-15T08:33:34;4.47;;;1.67;;
47329;SDS011;33060;50.178;7.570;2024-02-15T08:36:01;4.97;;;2.20;;
47329;SDS011;33060;50.178;7.570;2024-02-15T08:38:29;5.07;;;1.73;;
47329;SDS011;33060;50.178;7.570;2024-02-15T08:40:55;4.78;;;2.50;;
47329;SDS011;33060;50.178;7.570;2024-02-15T08:43:22;4.07;;;1.90;;
47329;SDS011;33060;50.178;7.570;2024-02-15T08:45:49;3.83;;;2.08;;
47329;SDS011;33060;50.178;7.570;2024-02-15T08:48:17;5.22;;;2.22;;
47329;SDS011;33060;50.178;7.570;2024-02-15T08:50:44;5.07;;;2.20;;
47329;SDS011;33060;50.178;7.570;2024-02-15T08:53:12;4.10;;;2.30;;
47329;SDS011;33060;50.178;7.570;2024-02-15T08:58:05;5.50;;;2.38;;
47329;SDS011;33060;50.178;7.570;2024-02-15T09:02:59;6.90;;;2.22;;
47329;SDS011;33060;50.178;7.570;2024-02-15T09:05:26;6.78;;;1.88;;
47329;SDS011;33060;50.178;7.570;2024-02-15T09:10:20;5.05;;;2.03;;
47329;SDS011;33060;50.178;7.570;2024-02-15T09:12:50;4.18;;;2.10;;
47329;SDS011;33060;50.178;7.570;2024-02-15T09:15:17;5.70;;;2.03;;
47329;SDS011;33060;50.178;7.570;2024-02-15T09:17:45;4.78;;;1.98;;
47329;SDS011;33060;50.178;7.570;2024-02-15T09:20:14;5.65;;;2.13;;
47329;SDS011;33060;50.178;7.570;2024-02-15T09:22:46;4.18;;;1.67;;
47329;SDS011;33060;50.178;7.570;2024-02-15T09:25:15;5.65;;;1.98;;
47329;SDS011;33060;50.178;7.570;2024-02-15T09:27:42;3.40;;;1.25;;
47329;SDS011;33060;50.178;7.570;2024-02-15T09:30:10;4.60;;;2.13;;
47329;SDS011;33060;50.178;7.570;2024-02-15T09:32:38;4.00;;;1.90;;
47329;SDS011;33060;50.178;7.570;2024-02-15T09:35:06;5.45;;;1.40;;
47329;SDS011;33060;50.178;7.570;2024-02-15T09:37:38;6.32;;;1.60;;
47329;SDS011;33060;50.178;7.570;2024-02-15T09:40:15;4.28;;;1.45;;
47329;SDS011;33060;50.178;7.570;2024-02-15T09:42:43;4.75;;;1.60;;
47329;SDS011;33060;50.178;7.570;2024-02-15T09:45:11;3.75;;;1.48;;
47329;SDS011;33060;50.178;7.570;2024-02-15T09:47:39;2.97;;;1.40;;
47329;SDS011;33060;50.178;7.570;2024-02-15T09:50:18;2.53;;;0.93;;
47329;SDS011;33060;50.178;7.570;2024-02-15T09:52:51;4.90;;;1.42;;
47329;SDS011;33060;50.178;7.570;2024-02-15T09:55:18;4.03;;;1.63;;
47329;SDS011;33060;50.178;7.570;2024-02-15T09:57:49;2.72;;;1.50;;
47329;SDS011;33060;50.178;7.570;2024-02-15T10:00:16;6.07;;;1.67;;
47329;SDS011;33060;50.178;7.570;2024-02-15T10:02:46;3.97;;;1.58;;
47329;SDS011;33060;50.178;7.570;2024-02-15T10:05:14;5.22;;;1.45;;
47329;SDS011;33060;50.178;7.570;2024-02-15T10:07:41;5.32;;;1.20;;
47329;SDS011;33060;50.178;7.570;2024-02-15T10:10:22;2.33;;;1.30;;
47329;SDS011;33060;50.178;7.570;2024-02-15T10:12:53;5.28;;;1.38;;
47329;SDS011;33060;50.178;7.570;2024-02-15T10:17:59;3.53;;;1.02;;
47329;SDS011;33060;50.178;7.570;2024-02-15T10:20:26;5.20;;;1.17;;
47329;SDS011;33060;50.178;7.570;2024-02-15T10:23:14;8.30;;;1.40;;
47329;SDS011;33060;50.178;7.570;2024-02-15T10:25:44;3.58;;;1.17;;
47329;SDS011;33060;50.178;7.570;2024-02-15T10:28:12;5.70;;;1.73;;
47329;SDS011;33060;50.178;7.570;2024-02-15T10:30:42;2.70;;;1.50;;
47329;SDS011;33060;50.178;7.570;2024-02-15T10:33:25;4.25;;;1.77;;
47329;SDS011;33060;50.178;7.570;2024-02-15T10:36:04;3.22;;;1.17;;
47329;SDS011;33060;50.178;7.570;2024-02-15T10:38:35;3.50;;;0.60;;
47329;SDS011;33060;50.178;7.570;2024-02-15T10:41:06;5.93;;;1.05;;
47329;SDS011;33060;50.178;7.570;2024-02-15T10:43:33;3.00;;;1.33;;
47329;SDS011;33060;50.178;7.570;2024-02-15T10:46:01;3.50;;;1.13;;
47329;SDS011;33060;50.178;7.570;2024-02-15T10:48:27;2.28;;;0.90;;
47329;SDS011;33060;50.178;7.570;2024-02-15T10:50:56;3.72;;;1.00;;
47329;SDS011;33060;50.178;7.570;2024-02-15T10:58:46;4.43;;;1.13;;
47329;SDS011;33060;50.178;7.570;2024-02-15T11:01:19;4.38;;;1.35;;
47329;SDS011;33060;50.178;7.570;2024-02-15T11:06:27;3.35;;;0.98;;
47329;SDS011;33060;50.178;7.570;2024-02-15T11:08:55;3.38;;;0.45;;
47329;SDS011;33060;50.178;7.570;2024-02-15T11:11:23;6.72;;;1.15;;
47329;SDS011;33060;50.178;7.570;2024-02-15T11:13:50;2.22;;;0.75;;
47329;SDS011;33060;50.178;7.570;2024-02-15T11:16:49;3.72;;;0.70;;
47329;SDS011;33060;50.178;7.570;2024-02-15T11:22:01;4.72;;;0.55;;
47329;SDS011;33060;50.178;7.570;2024-02-15T11:24:37;4.28;;;0.75;;
47329;SDS011;33060;50.178;7.570;2024-02-15T11:27:12;7.13;;;0.85;;
47329;SDS011;33060;50.178;7.570;2024-02-15T11:29:50;4.05;;;0.82;;
47329;SDS011;33060;50.178;7.570;2024-02-15T11:35:27;2.20;;;0.85;;
47329;SDS011;33060;50.178;7.570;2024-02-15T11:37:59;3.13;;;0.70;;
47329;SDS011;33060;50.178;7.570;2024-02-15T11:43:08;3.92;;;0.75;;
47329;SDS011;33060;50.178;7.570;2024-02-15T11:45:37;4.40;;;0.93;;
47329;SDS011;33060;50.178;7.570;2024-02-15T11:48:08;4.35;;;1.38;;
47329;SDS011;33060;50.178;7.570;2024-02-15T11:50:40;5.03;;;1.30;;
47329;SDS011;33060;50.178;7.570;2024-02-15T11:53:08;3.10;;;0.57;;
47329;SDS011;33060;50.178;7.570;2024-02-15T11:55:37;2.58;;;1.40;;
47329;SDS011;33060;50.178;7.570;2024-02-15T11:58:05;3.25;;;0.70;;
47329;SDS011;33060;50.178;7.570;2024-02-15T12:00:36;4.65;;;0.85;;
47329;SDS011;33060;50.178;7.570;2024-02-15T12:03:22;2.47;;;0.73;;
47329;SDS011;33060;50.178;7.570;2024-02-15T12:06:25;4.45;;;0.93;;
47329;SDS011;33060;50.178;7.570;2024-02-15T12:09:13;5.65;;;1.20;;
47329;SDS011;33060;50.178;7.570;2024-02-15T12:12:04;4.32;;;1.13;;
47329;SDS011;33060;50.178;7.570;2024-02-15T12:14:49;3.38;;;1.08;;
47329;SDS011;33060;50.178;7.570;2024-02-15T12:17:35;4.65;;;1.38;;
47329;SDS011;33060;50.178;7.570;2024-02-15T12:20:20;3.15;;;1.17;;
47329;SDS011;33060;50.178;7.570;2024-02-15T12:22:51;3.10;;;0.80;;
47329;SDS011;33060;50.178;7.570;2024-02-15T12:25:19;10.23;;;1.75;;
47329;SDS011;33060;50.178;7.570;2024-02-15T12:27:58;3.83;;;0.68;;
47329;SDS011;33060;50.178;7.570;2024-02-15T12:30:26;4.63;;;1.55;;
47329;SDS011;33060;50.178;7.570;2024-02-15T12:33:09;3.83;;;1.35;;
47329;SDS011;33060;50.178;7.570;2024-02-15T12:35:38;6.93;;;2.05;;
47329;SDS011;33060;50.178;7.570;2024-02-15T12:38:05;6.72;;;2.45;;
47329;SDS011;33060;50.178;7.570;2024-02-15T12:40:32;3.38;;;1.98;;
47329;SDS011;33060;50.178;7.570;2024-02-15T12:43:00;4.72;;;1.92;;
47329;SDS011;33060;50.178;7.570;2024-02-15T12:45:27;4.43;;;1.30;;
47329;SDS011;33060;50.178;7.570;2024-02-15T12:47:56;3.35;;;0.68;;
47329;SDS011;33060;50.178;7.570;2024-02-15T12:50:27;2.97;;;0.73;;
47329;SDS011;33060;50.178;7.570;2024-02-15T12:52:55;2.30;;;0.85;;
47329;SDS011;33060;50.178;7.570;2024-02-15T12:55:25;4.85;;;1.00;;
47329;SDS011;33060;50.178;7.570;2024-02-15T12:57:52;4.00;;;0.85;;
47329;SDS011;33060;50.178;7.570;2024-02-15T13:00:22;3.33;;;0.88;;
47329;SDS011;33060;50.178;7.570;2024-02-15T13:02:55;2.95;;;1.27;;
47329;SDS011;33060;50.178;7.570;2024-02-15T13:05:22;2.20;;;0.98;;
47329;SDS011;33060;50.178;7.570;2024-02-15T13:07:53;3.28;;;0.90;;
47329;SDS011;33060;50.178;7.570;2024-02-15T13:10:24;3.88;;;0.80;;
47329;SDS011;33060;50.178;7.570;2024-02-15T13:12:54;3.90;;;0.70;;
47329;SDS011;33060;50.178;7.570;2024-02-15T13:15:22;2.63;;;0.80;;
47329;SDS011;33060;50.178;7.570;2024-02-15T13:17:54;18.50;;;2.17;;
47329;SDS011;33060;50.178;7.570;2024-02-15T13:20:22;5.35;;;0.70;;
47329;SDS011;33060;50.178;7.570;2024-02-15T13:23:02;3.65;;;0.60;;
47329;SDS011;33060;50.178;7.570;2024-02-15T13:25:49;2.85;;;0.55;;
47329;SDS011;33060;50.178;7.570;2024-02-15T13:28:16;2.40;;;0.70;;
47329;SDS011;33060;50.178;7.570;2024-02-15T13:30:43;3.75;;;1.40;;
47329;SDS011;33060;50.178;7.570;2024-02-15T13:33:12;2.65;;;1.08;;
47329;SDS011;33060;50.178;7.570;2024-02-15T13:35:41;4.38;;;1.10;;
47329;SDS011;33060;50.178;7.570;2024-02-15T13:38:08;2.72;;;0.60;;
47329;SDS011;33060;50.178;7.570;2024-02-15T13:40:41;3.50;;;0.50;;
47329;SDS011;33060;50.178;7.570;2024-02-15T13:43:08;3.80;;;0.57;;
47329;SDS011;33060;50.178;7.570;2024-02-15T13:45:39;3.53;;;1.00;;
47329;SDS011;33060;50.178;7.570;2024-02-15T13:48:07;1.55;;;0.40;;
47329;SDS011;33060;50.178;7.570;2024-02-15T13:50:36;2.15;;;0.80;;
47329;SDS011;33060;50.178;7.570;2024-02-15T13:53:06;3.25;;;1.08;;
47329;SDS011;33060;50.178;7.570;2024-02-15T13:55:35;8.80;;;1.02;;
47329;SDS011;33060;50.178;7.570;2024-02-15T13:58:03;24.60;;;1.98;;
47329;SDS011;33060;50.178;7.570;2024-02-15T14:00:30;3.95;;;0.40;;
47329;SDS011;33060;50.178;7.570;2024-02-15T14:03:00;4.28;;;0.82;;
47329;SDS011;33060;50.178;7.570;2024-02-15T14:05:29;3.28;;;0.50;;
47329;SDS011;33060;50.178;7.570;2024-02-15T14:07:57;3.92;;;0.95;;
47329;SDS011;33060;50.178;7.570;2024-02-15T14:10:32;2.95;;;0.50;;
47329;SDS011;33060;50.178;7.570;2024-02-15T14:13:01;2.50;;;0.70;;
47329;SDS011;33060;50.178;7.570;2024-02-15T14:15:30;4.00;;;0.80;;
47329;SDS011;33060;50.178;7.570;2024-02-15T14:17:57;1.38;;;0.40;;
47329;SDS011;33060;50.178;7.570;2024-02-15T14:20:25;4.85;;;1.88;;
47329;SDS011;33060;50.178;7.570;2024-02-15T14:25:25;5.22;;;1.20;;
47329;SDS011;33060;50.178;7.570;2024-02-15T14:27:55;5.47;;;0.90;;
47329;SDS011;33060;50.178;7.570;2024-02-15T14:30:24;2.92;;;0.73;;
47329;SDS011;33060;50.178;7.570;2024-02-15T14:33:10;4.68;;;1.05;;
47329;SDS011;33060;50.178;7.570;2024-02-15T14:35:48;3.33;;;0.73;;
47329;SDS011;33060;50.178;7.570;2024-02-15T14:38:16;2.00;;;0.80;;
47329;SDS011;33060;50.178;7.570;2024-02-15T14:40:47;2.92;;;0.68;;
47329;SDS011;33060;50.178;7.570;2024-02-15T14:43:20;4.03;;;0.98;;
47329;SDS011;33060;50.178;7.570;2024-02-15T14:45:48;3.08;;;0.93;;
47329;SDS011;33060;50.178;7.570;2024-02-15T14:48:16;3.00;;;0.63;;
47329;SDS011;33060;50.178;7.570;2024-02-15T14:50:45;2.47;;;0.95;;
47329;SDS011;33060;50.178;7.570;2024-02-15T14:53:12;3.47;;;1.05;;
47329;SDS011;33060;50.178;7.570;2024-02-15T14:55:39;4.03;;;1.13;;
47329;SDS011;33060;50.178;7.570;2024-02-15T14:58:09;2.63;;;0.80;;
47329;SDS011;33060;50.178;7.570;2024-02-15T15:00:39;4.22;;;0.98;;
47329;SDS011;33060;50.178;7.570;2024-02-15T15:03:09;4.43;;;1.45;;
47329;SDS011;33060;50.178;7.570;2024-02-15T15:05:38;3.88;;;1.05;;
47329;SDS011;33060;50.178;7.570;2024-02-15T15:08:24;3.40;;;0.82;;
47329;SDS011;33060;50.178;7.570;2024-02-15T15:11:10;3.83;;;1.08;;
47329;SDS011;33060;50.178;7.570;2024-02-15T15:13:55;2.97;;;1.13;;
47329;SDS011;33060;50.178;7.570;2024-02-15T15:16:22;3.58;;;1.20;;
47329;SDS011;33060;50.178;7.570;2024-02-15T15:18:50;5.03;;;1.70;;
47329;SDS011;33060;50.178;7.570;2024-02-15T15:21:19;3.20;;;1.08;;
47329;SDS011;33060;50.178;7.570;2024-02-15T15:23:45;5.43;;;1.38;;
47329;SDS011;33060;50.178;7.570;2024-02-15T15:26:18;4.70;;;1.58;;
47329;SDS011;33060;50.178;7.570;2024-02-15T15:28:48;4.55;;;1.80;;
47329;SDS011;33060;50.178;7.570;2024-02-15T15:31:16;3.35;;;1.67;;
47329;SDS011;33060;50.178;7.570;2024-02-15T15:33:46;4.15;;;1.77;;
47329;SDS011;33060;50.178;7.570;2024-02-15T15:36:15;3.70;;;1.70;;
47329;SDS011;33060;50.178;7.570;2024-02-15T15:38:44;8.77;;;1.90;;
47329;SDS011;33060;50.178;7.570;2024-02-15T15:41:12;5.47;;;1.80;;
47329;SDS011;33060;50.178;7.570;2024-02-15T15:43:39;6.07;;;1.77;;
47329;SDS011;33060;50.178;7.570;2024-02-15T15:46:06;4.53;;;1.63;;
47329;SDS011;33060;50.178;7.570;2024-02-15T15:48:41;3.85;;;1.70;;
47329;SDS011;33060;50.178;7.570;2024-02-15T15:51:10;4.80;;;2.35;;
47329;SDS011;33060;50.178;7.570;2024-02-15T15:53:37;4.38;;;1.80;;
47329;SDS011;33060;50.178;7.570;2024-02-15T15:56:06;6.15;;;1.70;;
47329;SDS011;33060;50.178;7.570;2024-02-15T15:58:33;8.60;;;2.38;;
47329;SDS011;33060;50.178;7.570;2024-02-15T16:01:00;7.57;;;2.28;;
47329;SDS011;33060;50.178;7.570;2024-02-15T16:03:27;7.97;;;2.40;;
47329;SDS011;33060;50.178;7.570;2024-02-15T16:05:54;6.50;;;1.83;;
47329;SDS011;33060;50.178;7.570;2024-02-15T16:10:48;6.65;;;1.45;;
47329;SDS011;33060;50.178;7.570;2024-02-15T16:15:42;4.55;;;1.42;;
47329;SDS011;33060;50.178;7.570;2024-02-15T16:18:12;4.95;;;1.58;;
47329;SDS011;33060;50.178;7.570;2024-02-15T16:20:41;4.68;;;1.50;;